N276LB CYXY-PAWG
Flight info
| Callsign | N276LB |
|---|---|
| Flight time | 1h 27m |
| Altitude | 19000 |
| Route | YXY J536 SSR Q902 LVD |
| Aircraft | TBM8/L-SDFGRWY/S |
Departure
| Time | 2026-04-29 18:38 |
|---|---|
| Airport | Whitehorse / Erik Nielsen International Airport (CYXY) |
Arrival
| Time | 2026-04-29 20:06 |
|---|---|
| Airport | Wrangell Airport (PAWG) |
| Time | Latitude | Longitude | Altitude | Speed | Heading |
|---|---|---|---|---|---|
| 2026-04-29 18:13 | 60.71598 | -135.07721 | 2281 ft | 0 kts | 249° |
| 2026-04-29 18:34 | 60.71596 | -135.07741 | 2281 ft | 6 kts | 269° |
| 2026-04-29 18:34 | 60.71648 | -135.07676 | 2281 ft | 11 kts | 70° |
| 2026-04-29 18:34 | 60.71710 | -135.07590 | 2281 ft | 13 kts | 346° |
| 2026-04-29 18:35 | 60.71802 | -135.07663 | 2281 ft | 14 kts | 339° |
| 2026-04-29 18:35 | 60.71881 | -135.07689 | 2281 ft | 9 kts | 28° |
| 2026-04-29 18:35 | 60.71897 | -135.07652 | 2281 ft | 0 kts | 64° |
| 2026-04-29 18:36 | 60.71910 | -135.07593 | 2281 ft | 13 kts | 68° |
| 2026-04-29 18:36 | 60.71895 | -135.07455 | 2281 ft | 11 kts | 150° |
| 2026-04-29 18:36 | 60.71874 | -135.07440 | 2281 ft | 0 kts | 160° |
| 2026-04-29 18:37 | 60.71872 | -135.07438 | 2281 ft | 4 kts | 160° |
| 2026-04-29 18:37 | 60.71694 | -135.07302 | 2300 ft | 52 kts | 159° |
| 2026-04-29 18:38 | 60.71203 | -135.06927 | 2309 ft | 93 kts | 160° |
| 2026-04-29 18:38 | 60.70533 | -135.06479 | 2547 ft | 108 kts | 163° |
| 2026-04-29 18:38 | 60.69780 | -135.06000 | 2841 ft | 118 kts | 164° |
| 2026-04-29 18:38 | 60.69002 | -135.05504 | 3260 ft | 116 kts | 168° |
| 2026-04-29 18:39 | 60.68168 | -135.05160 | 3582 ft | 133 kts | 170° |
| 2026-04-29 18:39 | 60.67210 | -135.04711 | 3939 ft | 146 kts | 166° |
| 2026-04-29 18:39 | 60.66253 | -135.04187 | 4554 ft | 140 kts | 167° |
| 2026-04-29 18:39 | 60.65320 | -135.03779 | 5039 ft | 140 kts | 166° |
| 2026-04-29 18:40 | 60.64365 | -135.03122 | 5468 ft | 138 kts | 161° |
| 2026-04-29 18:40 | 60.63472 | -135.02372 | 5844 ft | 148 kts | 159° |
| 2026-04-29 18:40 | 60.62512 | -135.01465 | 6207 ft | 152 kts | 157° |
| 2026-04-29 18:40 | 60.61527 | -135.00565 | 6448 ft | 164 kts | 165° |
| 2026-04-29 18:41 | 60.58424 | -135.03424 | 7281 ft | 174 kts | 217° |
| 2026-04-29 18:41 | 60.57513 | -135.04996 | 7603 ft | 174 kts | 218° |
| 2026-04-29 18:42 | 60.56590 | -135.06580 | 7922 ft | 174 kts | 218° |
| 2026-04-29 18:42 | 60.55658 | -135.08167 | 8240 ft | 175 kts | 218° |
| 2026-04-29 18:42 | 60.54723 | -135.09752 | 8609 ft | 175 kts | 217° |
| 2026-04-29 18:42 | 60.53789 | -135.11330 | 9022 ft | 173 kts | 218° |
| 2026-04-29 18:43 | 60.52860 | -135.12894 | 9421 ft | 174 kts | 218° |
| 2026-04-29 18:43 | 60.51899 | -135.14381 | 9820 ft | 173 kts | 207° |
| 2026-04-29 18:43 | 60.50710 | -135.14737 | 10190 ft | 177 kts | 181° |
| 2026-04-29 18:43 | 60.49475 | -135.14591 | 10507 ft | 178 kts | 182° |
| 2026-04-29 18:44 | 60.48243 | -135.14581 | 10829 ft | 177 kts | 185° |
| 2026-04-29 18:44 | 60.46971 | -135.14650 | 10914 ft | 189 kts | 185° |
| 2026-04-29 18:44 | 60.45644 | -135.14726 | 11169 ft | 191 kts | 185° |
| 2026-04-29 18:44 | 60.44317 | -135.14790 | 11423 ft | 191 kts | 185° |
| 2026-04-29 18:45 | 60.42988 | -135.14858 | 11660 ft | 191 kts | 186° |
| 2026-04-29 18:45 | 60.41665 | -135.14925 | 11896 ft | 190 kts | 186° |
| 2026-04-29 18:45 | 60.40341 | -135.14999 | 12011 ft | 191 kts | 186° |
| 2026-04-29 18:45 | 60.39033 | -135.15062 | 12238 ft | 191 kts | 187° |
| 2026-04-29 18:46 | 60.37699 | -135.15131 | 12505 ft | 193 kts | 187° |
| 2026-04-29 18:46 | 60.36354 | -135.15204 | 12727 ft | 193 kts | 186° |
| 2026-04-29 18:46 | 60.35011 | -135.15272 | 12895 ft | 194 kts | 187° |
| 2026-04-29 18:46 | 60.33659 | -135.15345 | 13135 ft | 194 kts | 187° |
| 2026-04-29 18:47 | 60.32304 | -135.15416 | 13401 ft | 195 kts | 186° |
| 2026-04-29 18:47 | 60.30943 | -135.15485 | 13656 ft | 196 kts | 186° |
| 2026-04-29 18:47 | 60.29575 | -135.15555 | 13891 ft | 197 kts | 186° |
| 2026-04-29 18:47 | 60.28199 | -135.15624 | 14128 ft | 198 kts | 187° |
| 2026-04-29 18:48 | 60.26815 | -135.15703 | 14344 ft | 199 kts | 187° |
| 2026-04-29 18:48 | 60.25429 | -135.15772 | 14562 ft | 199 kts | 186° |
| 2026-04-29 18:48 | 60.24040 | -135.15842 | 14772 ft | 200 kts | 187° |
| 2026-04-29 18:48 | 60.22646 | -135.15909 | 14999 ft | 201 kts | 187° |
| 2026-04-29 18:49 | 60.21245 | -135.15981 | 15170 ft | 202 kts | 187° |
| 2026-04-29 18:49 | 60.19840 | -135.16059 | 15370 ft | 202 kts | 187° |
| 2026-04-29 18:49 | 60.18430 | -135.16130 | 15626 ft | 203 kts | 187° |
| 2026-04-29 18:49 | 60.17038 | -135.16200 | 15763 ft | 203 kts | 187° |
| 2026-04-29 18:50 | 60.15629 | -135.16267 | 15977 ft | 200 kts | 188° |
| 2026-04-29 18:50 | 60.14246 | -135.16339 | 16235 ft | 199 kts | 188° |
| 2026-04-29 18:50 | 60.12854 | -135.16417 | 16359 ft | 201 kts | 188° |
| 2026-04-29 18:50 | 60.11456 | -135.16487 | 16586 ft | 201 kts | 188° |
| 2026-04-29 18:51 | 60.10059 | -135.16561 | 16781 ft | 201 kts | 188° |
| 2026-04-29 18:51 | 60.08657 | -135.16630 | 16990 ft | 202 kts | 188° |
| 2026-04-29 18:51 | 60.07243 | -135.16704 | 17166 ft | 203 kts | 188° |
| 2026-04-29 18:51 | 60.05827 | -135.16774 | 17400 ft | 203 kts | 188° |
| 2026-04-29 18:52 | 60.04409 | -135.16845 | 17612 ft | 204 kts | 188° |
| 2026-04-29 18:52 | 60.02987 | -135.16920 | 17800 ft | 205 kts | 188° |
| 2026-04-29 18:52 | 60.01561 | -135.16992 | 18013 ft | 205 kts | 188° |
| 2026-04-29 18:52 | 60.00129 | -135.17068 | 18140 ft | 206 kts | 188° |
| 2026-04-29 18:53 | 59.98694 | -135.17134 | 18290 ft | 206 kts | 188° |
| 2026-04-29 18:53 | 59.97277 | -135.17205 | 18452 ft | 207 kts | 188° |
| 2026-04-29 18:53 | 59.95837 | -135.17282 | 18600 ft | 207 kts | 189° |
| 2026-04-29 18:53 | 59.94392 | -135.17356 | 18739 ft | 208 kts | 188° |
| 2026-04-29 18:54 | 59.92948 | -135.17425 | 18903 ft | 208 kts | 189° |
| 2026-04-29 18:54 | 59.91499 | -135.17499 | 19059 ft | 209 kts | 188° |
| 2026-04-29 18:54 | 59.90015 | -135.17581 | 19087 ft | 218 kts | 189° |
| 2026-04-29 18:54 | 59.88472 | -135.17665 | 19087 ft | 225 kts | 188° |
| 2026-04-29 18:55 | 59.86891 | -135.17744 | 19095 ft | 229 kts | 188° |
| 2026-04-29 18:55 | 59.85285 | -135.17829 | 19098 ft | 233 kts | 188° |
| 2026-04-29 18:55 | 59.83662 | -135.17903 | 19100 ft | 234 kts | 188° |
| 2026-04-29 18:55 | 59.82039 | -135.18031 | 19102 ft | 234 kts | 189° |
| 2026-04-29 18:56 | 59.80411 | -135.18085 | 19192 ft | 234 kts | 186° |
| 2026-04-29 18:56 | 59.78780 | -135.18110 | 19205 ft | 236 kts | 188° |
| 2026-04-29 18:56 | 59.77138 | -135.18210 | 19208 ft | 236 kts | 188° |
| 2026-04-29 18:56 | 59.75493 | -135.18312 | 19227 ft | 237 kts | 188° |
| 2026-04-29 18:57 | 59.73845 | -135.18391 | 19224 ft | 237 kts | 188° |
| 2026-04-29 18:57 | 59.72198 | -135.18471 | 19225 ft | 237 kts | 188° |
| 2026-04-29 18:57 | 59.70551 | -135.18556 | 19225 ft | 237 kts | 188° |
| 2026-04-29 18:57 | 59.68913 | -135.18639 | 19220 ft | 235 kts | 188° |
| 2026-04-29 18:58 | 59.67277 | -135.18714 | 19223 ft | 237 kts | 188° |
| 2026-04-29 18:58 | 59.65648 | -135.18804 | 19220 ft | 237 kts | 188° |
| 2026-04-29 18:58 | 59.64001 | -135.18882 | 19222 ft | 237 kts | 188° |
| 2026-04-29 18:58 | 59.62350 | -135.18963 | 19219 ft | 237 kts | 188° |
| 2026-04-29 18:59 | 59.60706 | -135.19045 | 19192 ft | 236 kts | 188° |
| 2026-04-29 18:59 | 59.59065 | -135.19125 | 19214 ft | 236 kts | 188° |
| 2026-04-29 18:59 | 59.57420 | -135.19209 | 19214 ft | 237 kts | 188° |
| 2026-04-29 18:59 | 59.55762 | -135.19291 | 19212 ft | 238 kts | 188° |
| 2026-04-29 19:00 | 59.54102 | -135.19374 | 19211 ft | 239 kts | 188° |
| 2026-04-29 19:00 | 59.52437 | -135.19456 | 19209 ft | 239 kts | 188° |
| 2026-04-29 19:00 | 59.50774 | -135.19535 | 19216 ft | 239 kts | 188° |
| 2026-04-29 19:00 | 59.49129 | -135.19621 | 19218 ft | 241 kts | 188° |
| 2026-04-29 19:01 | 59.47460 | -135.19710 | 19221 ft | 237 kts | 188° |
| 2026-04-29 19:01 | 59.45813 | -135.19787 | 19222 ft | 236 kts | 186° |
| 2026-04-29 19:01 | 59.44176 | -135.19858 | 19224 ft | 236 kts | 188° |
| 2026-04-29 19:01 | 59.42536 | -135.19945 | 19223 ft | 236 kts | 188° |
| 2026-04-29 19:02 | 59.40887 | -135.20024 | 19222 ft | 237 kts | 188° |
| 2026-04-29 19:02 | 59.39794 | -135.20079 | 19220 ft | 237 kts | 187° |
| 2026-04-29 19:02 | 59.37608 | -135.20185 | 19232 ft | 232 kts | 187° |
| 2026-04-29 19:02 | 59.35996 | -135.20259 | 19226 ft | 232 kts | 187° |
| 2026-04-29 19:03 | 59.34388 | -135.20345 | 19228 ft | 231 kts | 187° |
| 2026-04-29 19:03 | 59.32777 | -135.20427 | 19230 ft | 232 kts | 187° |
| 2026-04-29 19:03 | 59.31158 | -135.20506 | 19231 ft | 233 kts | 187° |
| 2026-04-29 19:03 | 59.29533 | -135.20589 | 19217 ft | 233 kts | 187° |
| 2026-04-29 19:04 | 59.27915 | -135.20660 | 19224 ft | 232 kts | 187° |
| 2026-04-29 19:04 | 59.26293 | -135.20741 | 19225 ft | 234 kts | 187° |
| 2026-04-29 19:04 | 59.24681 | -135.20822 | 19225 ft | 236 kts | 187° |
| 2026-04-29 19:04 | 59.23037 | -135.20899 | 19223 ft | 236 kts | 187° |
| 2026-04-29 19:05 | 59.21395 | -135.20982 | 19225 ft | 236 kts | 187° |
| 2026-04-29 19:05 | 59.19764 | -135.21063 | 19191 ft | 232 kts | 187° |
| 2026-04-29 19:05 | 59.18154 | -135.21132 | 19202 ft | 233 kts | 187° |
| 2026-04-29 19:05 | 59.16543 | -135.21211 | 19223 ft | 232 kts | 187° |
| 2026-04-29 19:06 | 59.14921 | -135.21294 | 19218 ft | 234 kts | 187° |
| 2026-04-29 19:06 | 59.13290 | -135.21381 | 19209 ft | 234 kts | 187° |
| 2026-04-29 19:06 | 59.10038 | -135.21525 | 19233 ft | 236 kts | 187° |
| 2026-04-29 19:07 | 59.08388 | -135.21614 | 19235 ft | 238 kts | 187° |
| 2026-04-29 19:07 | 59.07827 | -135.21641 | 19234 ft | 238 kts | 187° |
| 2026-04-29 19:07 | 59.05072 | -135.21770 | 19247 ft | 238 kts | 187° |
| 2026-04-29 19:07 | 59.03416 | -135.21851 | 19255 ft | 239 kts | 187° |
| 2026-04-29 19:08 | 59.01754 | -135.21931 | 19251 ft | 239 kts | 187° |
| 2026-04-29 19:08 | 59.00084 | -135.22013 | 19253 ft | 240 kts | 187° |
| 2026-04-29 19:08 | 58.98413 | -135.22091 | 19257 ft | 241 kts | 187° |
| 2026-04-29 19:08 | 58.96764 | -135.22171 | 19255 ft | 240 kts | 187° |
| 2026-04-29 19:09 | 58.95099 | -135.22251 | 19258 ft | 239 kts | 187° |
| 2026-04-29 19:09 | 58.93433 | -135.22331 | 19259 ft | 239 kts | 187° |
| 2026-04-29 19:09 | 58.91776 | -135.22411 | 19259 ft | 238 kts | 187° |
| 2026-04-29 19:09 | 58.90118 | -135.22488 | 19255 ft | 238 kts | 187° |
| 2026-04-29 19:10 | 58.88468 | -135.22568 | 19256 ft | 237 kts | 187° |
| 2026-04-29 19:10 | 58.86824 | -135.22646 | 19254 ft | 236 kts | 187° |
| 2026-04-29 19:10 | 58.85735 | -135.22698 | 19254 ft | 236 kts | 187° |
| 2026-04-29 19:10 | 58.84092 | -135.22776 | 19251 ft | 236 kts | 187° |
| 2026-04-29 19:11 | 58.82455 | -135.22854 | 19252 ft | 235 kts | 187° |
| 2026-04-29 19:11 | 58.80822 | -135.22932 | 19250 ft | 235 kts | 187° |
| 2026-04-29 19:11 | 58.78657 | -135.23034 | 19235 ft | 235 kts | 186° |
| 2026-04-29 19:11 | 58.77006 | -135.23114 | 19243 ft | 239 kts | 186° |
| 2026-04-29 19:12 | 58.75874 | -135.23170 | 19242 ft | 242 kts | 186° |
| 2026-04-29 19:12 | 58.74189 | -135.23249 | 19239 ft | 242 kts | 186° |
| 2026-04-29 19:12 | 58.72509 | -135.23328 | 19240 ft | 241 kts | 186° |
| 2026-04-29 19:12 | 58.71400 | -135.23378 | 19240 ft | 240 kts | 186° |
| 2026-04-29 19:13 | 58.69185 | -135.23486 | 19244 ft | 240 kts | 186° |
| 2026-04-29 19:13 | 58.67514 | -135.23563 | 19238 ft | 240 kts | 186° |
| 2026-04-29 19:13 | 58.65843 | -135.23638 | 19237 ft | 240 kts | 186° |
| 2026-04-29 19:13 | 58.64171 | -135.23721 | 19235 ft | 240 kts | 186° |
| 2026-04-29 19:14 | 58.62499 | -135.23799 | 19234 ft | 240 kts | 186° |
| 2026-04-29 19:14 | 58.60827 | -135.23877 | 19231 ft | 240 kts | 186° |
| 2026-04-29 19:14 | 58.59160 | -135.23955 | 19235 ft | 239 kts | 186° |
| 2026-04-29 19:14 | 58.57501 | -135.24034 | 19233 ft | 238 kts | 186° |
| 2026-04-29 19:15 | 58.55849 | -135.24111 | 19229 ft | 236 kts | 186° |
| 2026-04-29 19:15 | 58.54204 | -135.24189 | 19228 ft | 237 kts | 186° |
| 2026-04-29 19:15 | 58.52553 | -135.24266 | 19229 ft | 238 kts | 186° |
| 2026-04-29 19:15 | 58.50898 | -135.24343 | 19222 ft | 239 kts | 186° |
| 2026-04-29 19:16 | 58.49238 | -135.24421 | 19230 ft | 239 kts | 186° |
| 2026-04-29 19:16 | 58.47566 | -135.24497 | 19230 ft | 242 kts | 186° |
| 2026-04-29 19:16 | 58.45900 | -135.24575 | 19230 ft | 243 kts | 186° |
| 2026-04-29 19:16 | 58.44211 | -135.24655 | 19228 ft | 243 kts | 186° |
| 2026-04-29 19:17 | 58.42523 | -135.24735 | 19229 ft | 242 kts | 186° |
| 2026-04-29 19:17 | 58.40838 | -135.24809 | 19226 ft | 242 kts | 186° |
| 2026-04-29 19:17 | 58.39155 | -135.24889 | 19228 ft | 242 kts | 186° |
| 2026-04-29 19:17 | 58.37471 | -135.24973 | 19214 ft | 241 kts | 185° |
| 2026-04-29 19:18 | 58.35800 | -135.25048 | 19231 ft | 240 kts | 185° |
| 2026-04-29 19:18 | 58.34697 | -135.25095 | 19234 ft | 240 kts | 185° |
| 2026-04-29 19:18 | 58.32455 | -135.25199 | 19231 ft | 241 kts | 185° |
| 2026-04-29 19:18 | 58.30780 | -135.25275 | 19231 ft | 241 kts | 185° |
| 2026-04-29 19:19 | 58.29092 | -135.25353 | 19233 ft | 243 kts | 185° |
| 2026-04-29 19:19 | 58.27423 | -135.25435 | 19231 ft | 243 kts | 185° |
| 2026-04-29 19:19 | 58.25734 | -135.25511 | 19230 ft | 243 kts | 185° |
| 2026-04-29 19:19 | 58.24046 | -135.25589 | 19228 ft | 243 kts | 185° |
| 2026-04-29 19:20 | 58.22357 | -135.25665 | 19223 ft | 243 kts | 185° |
| 2026-04-29 19:20 | 58.20667 | -135.25743 | 19231 ft | 242 kts | 185° |
| 2026-04-29 19:20 | 58.18986 | -135.25788 | 19230 ft | 243 kts | 181° |
| 2026-04-29 19:20 | 58.17329 | -135.25020 | 19232 ft | 250 kts | 163° |
| 2026-04-29 19:21 | 58.15823 | -135.23280 | 19230 ft | 257 kts | 151° |
| 2026-04-29 19:21 | 58.14375 | -135.21295 | 19230 ft | 256 kts | 152° |
| 2026-04-29 19:21 | 58.12922 | -135.19353 | 19231 ft | 256 kts | 152° |
| 2026-04-29 19:21 | 58.11470 | -135.17409 | 19231 ft | 255 kts | 152° |
| 2026-04-29 19:22 | 58.10040 | -135.15488 | 19231 ft | 255 kts | 152° |
| 2026-04-29 19:22 | 58.08592 | -135.13545 | 19231 ft | 255 kts | 152° |
| 2026-04-29 19:22 | 58.07144 | -135.11608 | 19231 ft | 254 kts | 152° |
| 2026-04-29 19:22 | 58.05700 | -135.09677 | 19214 ft | 254 kts | 152° |
| 2026-04-29 19:23 | 58.04259 | -135.07751 | 19222 ft | 254 kts | 152° |
| 2026-04-29 19:23 | 58.02811 | -135.05820 | 19223 ft | 255 kts | 152° |
| 2026-04-29 19:23 | 58.01366 | -135.03891 | 19225 ft | 255 kts | 152° |
| 2026-04-29 19:23 | 57.99916 | -135.01958 | 19227 ft | 256 kts | 152° |
| 2026-04-29 19:24 | 57.98454 | -135.00017 | 19223 ft | 256 kts | 152° |
| 2026-04-29 19:24 | 57.96994 | -134.98074 | 19231 ft | 256 kts | 152° |
| 2026-04-29 19:24 | 57.95540 | -134.96143 | 19229 ft | 255 kts | 151° |
| 2026-04-29 19:24 | 57.94091 | -134.94220 | 19234 ft | 254 kts | 152° |
| 2026-04-29 19:25 | 57.92643 | -134.92299 | 19235 ft | 255 kts | 151° |
| 2026-04-29 19:25 | 57.91212 | -134.90402 | 19235 ft | 254 kts | 152° |
| 2026-04-29 19:25 | 57.89757 | -134.88482 | 19230 ft | 254 kts | 152° |
| 2026-04-29 19:25 | 57.88311 | -134.86571 | 19230 ft | 254 kts | 152° |
| 2026-04-29 19:26 | 57.86862 | -134.84657 | 19224 ft | 254 kts | 152° |
| 2026-04-29 19:26 | 57.85413 | -134.82745 | 19232 ft | 255 kts | 152° |
| 2026-04-29 19:26 | 57.83962 | -134.80837 | 19232 ft | 255 kts | 152° |
| 2026-04-29 19:26 | 57.82511 | -134.78925 | 19232 ft | 255 kts | 152° |
| 2026-04-29 19:27 | 57.81059 | -134.77016 | 19233 ft | 254 kts | 152° |
| 2026-04-29 19:27 | 57.79633 | -134.75141 | 19234 ft | 254 kts | 152° |
| 2026-04-29 19:27 | 57.78185 | -134.73244 | 19234 ft | 254 kts | 152° |
| 2026-04-29 19:27 | 57.76737 | -134.71345 | 19248 ft | 254 kts | 152° |
| 2026-04-29 19:28 | 57.75288 | -134.69448 | 19250 ft | 254 kts | 152° |
| 2026-04-29 19:28 | 57.73843 | -134.67557 | 19249 ft | 253 kts | 152° |
| 2026-04-29 19:28 | 57.72404 | -134.65676 | 19246 ft | 251 kts | 152° |
| 2026-04-29 19:28 | 57.70987 | -134.63813 | 19248 ft | 248 kts | 152° |
| 2026-04-29 19:29 | 57.69572 | -134.61978 | 19249 ft | 248 kts | 152° |
| 2026-04-29 19:29 | 57.68156 | -134.60139 | 19249 ft | 248 kts | 152° |
| 2026-04-29 19:29 | 57.66743 | -134.58298 | 19266 ft | 248 kts | 152° |
| 2026-04-29 19:29 | 57.65323 | -134.56451 | 19268 ft | 249 kts | 152° |
| 2026-04-29 19:30 | 57.63900 | -134.54605 | 19268 ft | 249 kts | 152° |
| 2026-04-29 19:30 | 57.62476 | -134.52754 | 19269 ft | 250 kts | 152° |
| 2026-04-29 19:30 | 57.61046 | -134.50896 | 19271 ft | 250 kts | 152° |
| 2026-04-29 19:30 | 57.59614 | -134.49043 | 19268 ft | 250 kts | 152° |
| 2026-04-29 19:31 | 57.58185 | -134.47191 | 19269 ft | 250 kts | 152° |
| 2026-04-29 19:31 | 57.56756 | -134.45346 | 19280 ft | 250 kts | 152° |
| 2026-04-29 19:31 | 57.55325 | -134.43496 | 19280 ft | 251 kts | 152° |
| 2026-04-29 19:31 | 57.53888 | -134.41643 | 19280 ft | 251 kts | 152° |
| 2026-04-29 19:32 | 57.52448 | -134.39787 | 19280 ft | 252 kts | 152° |
| 2026-04-29 19:32 | 57.51028 | -134.37959 | 19267 ft | 252 kts | 152° |
| 2026-04-29 19:32 | 57.49583 | -134.36098 | 19271 ft | 252 kts | 152° |
| 2026-04-29 19:32 | 57.48135 | -134.34240 | 19267 ft | 253 kts | 152° |
| 2026-04-29 19:33 | 57.46687 | -134.32378 | 19285 ft | 253 kts | 152° |
| 2026-04-29 19:33 | 57.45240 | -134.30520 | 19286 ft | 252 kts | 152° |
| 2026-04-29 19:33 | 57.43799 | -134.28669 | 19283 ft | 252 kts | 152° |
| 2026-04-29 19:33 | 57.42359 | -134.26827 | 19287 ft | 252 kts | 152° |
| 2026-04-29 19:34 | 57.40915 | -134.24983 | 19287 ft | 253 kts | 152° |
| 2026-04-29 19:34 | 57.39464 | -134.23132 | 19288 ft | 254 kts | 152° |
| 2026-04-29 19:34 | 57.38006 | -134.21268 | 19302 ft | 255 kts | 152° |
| 2026-04-29 19:34 | 57.36547 | -134.19403 | 19304 ft | 255 kts | 152° |
| 2026-04-29 19:35 | 57.35091 | -134.17551 | 19297 ft | 253 kts | 152° |
| 2026-04-29 19:35 | 57.33641 | -134.15703 | 19306 ft | 253 kts | 152° |
| 2026-04-29 19:35 | 57.32211 | -134.13889 | 19305 ft | 252 kts | 152° |
| 2026-04-29 19:35 | 57.30762 | -134.12045 | 19306 ft | 253 kts | 152° |
| 2026-04-29 19:36 | 57.29314 | -134.10209 | 19307 ft | 253 kts | 152° |
| 2026-04-29 19:36 | 57.27863 | -134.08368 | 19324 ft | 252 kts | 152° |
| 2026-04-29 19:36 | 57.26413 | -134.06532 | 19318 ft | 252 kts | 152° |
| 2026-04-29 19:36 | 57.24966 | -134.04701 | 19317 ft | 252 kts | 152° |
| 2026-04-29 19:37 | 57.23517 | -134.02867 | 19313 ft | 252 kts | 152° |
| 2026-04-29 19:37 | 57.22558 | -134.01657 | 19313 ft | 252 kts | 152° |
| 2026-04-29 19:37 | 57.20618 | -133.99208 | 19312 ft | 252 kts | 152° |
| 2026-04-29 19:37 | 57.19168 | -133.97382 | 19312 ft | 252 kts | 152° |
| 2026-04-29 19:38 | 57.17717 | -133.95555 | 19317 ft | 253 kts | 152° |
| 2026-04-29 19:38 | 57.16266 | -133.93729 | 19315 ft | 252 kts | 152° |
| 2026-04-29 19:38 | 57.14817 | -133.91907 | 19314 ft | 252 kts | 152° |
| 2026-04-29 19:38 | 57.13369 | -133.90087 | 19310 ft | 252 kts | 153° |
| 2026-04-29 19:39 | 57.11925 | -133.88277 | 19309 ft | 251 kts | 152° |
| 2026-04-29 19:39 | 57.10479 | -133.86463 | 19308 ft | 251 kts | 152° |
| 2026-04-29 19:39 | 57.09033 | -133.84652 | 19302 ft | 251 kts | 152° |
| 2026-04-29 19:39 | 57.07588 | -133.82847 | 19301 ft | 251 kts | 152° |
| 2026-04-29 19:40 | 57.06141 | -133.81036 | 19298 ft | 252 kts | 152° |
| 2026-04-29 19:40 | 57.04692 | -133.79227 | 19296 ft | 252 kts | 152° |
| 2026-04-29 19:40 | 57.03257 | -133.77438 | 19298 ft | 253 kts | 152° |
| 2026-04-29 19:40 | 57.01802 | -133.75626 | 19297 ft | 253 kts | 152° |
| 2026-04-29 19:41 | 57.00343 | -133.73806 | 19298 ft | 253 kts | 152° |
| 2026-04-29 19:41 | 56.98881 | -133.71992 | 19299 ft | 254 kts | 152° |
| 2026-04-29 19:41 | 56.97420 | -133.70174 | 19298 ft | 254 kts | 152° |
| 2026-04-29 19:41 | 56.95958 | -133.68360 | 19299 ft | 253 kts | 152° |
| 2026-04-29 19:42 | 56.94499 | -133.66548 | 19316 ft | 253 kts | 152° |
| 2026-04-29 19:42 | 56.93531 | -133.65352 | 19316 ft | 254 kts | 152° |
| 2026-04-29 19:42 | 56.91574 | -133.62928 | 19317 ft | 254 kts | 152° |
| 2026-04-29 19:42 | 56.90108 | -133.61116 | 19261 ft | 256 kts | 152° |
| 2026-04-29 19:43 | 56.88615 | -133.59281 | 18915 ft | 268 kts | 152° |
| 2026-04-29 19:43 | 56.87042 | -133.57340 | 18562 ft | 276 kts | 152° |
| 2026-04-29 19:43 | 56.85449 | -133.55390 | 18160 ft | 274 kts | 152° |
| 2026-04-29 19:43 | 56.83875 | -133.53459 | 17759 ft | 271 kts | 152° |
| 2026-04-29 19:44 | 56.82322 | -133.51532 | 17363 ft | 268 kts | 152° |
| 2026-04-29 19:44 | 56.80785 | -133.49636 | 16972 ft | 266 kts | 152° |
| 2026-04-29 19:44 | 56.79255 | -133.47759 | 16585 ft | 264 kts | 152° |
| 2026-04-29 19:44 | 56.77736 | -133.45897 | 16208 ft | 262 kts | 152° |
| 2026-04-29 19:45 | 56.76222 | -133.44042 | 15830 ft | 261 kts | 152° |
| 2026-04-29 19:45 | 56.74721 | -133.42200 | 15456 ft | 260 kts | 152° |
| 2026-04-29 19:45 | 56.73225 | -133.40370 | 15085 ft | 258 kts | 152° |
| 2026-04-29 19:45 | 56.71741 | -133.38558 | 14721 ft | 256 kts | 152° |
| 2026-04-29 19:46 | 56.70267 | -133.36756 | 14368 ft | 255 kts | 152° |
| 2026-04-29 19:46 | 56.68789 | -133.34956 | 13990 ft | 255 kts | 152° |
| 2026-04-29 19:46 | 56.67336 | -133.33189 | 13596 ft | 254 kts | 152° |
| 2026-04-29 19:46 | 56.65866 | -133.31403 | 13200 ft | 254 kts | 152° |
| 2026-04-29 19:47 | 56.64402 | -133.29615 | 12803 ft | 252 kts | 151° |
| 2026-04-29 19:47 | 56.62949 | -133.27851 | 12416 ft | 249 kts | 151° |
| 2026-04-29 19:47 | 56.61515 | -133.26114 | 12032 ft | 246 kts | 151° |
| 2026-04-29 19:47 | 56.60096 | -133.24393 | 11635 ft | 244 kts | 151° |
| 2026-04-29 19:48 | 56.58690 | -133.22689 | 11255 ft | 242 kts | 151° |
| 2026-04-29 19:48 | 56.57765 | -133.21571 | 11014 ft | 241 kts | 151° |
| 2026-04-29 19:48 | 56.55908 | -133.19324 | 10523 ft | 239 kts | 150° |
| 2026-04-29 19:48 | 56.54534 | -133.17662 | 10155 ft | 236 kts | 150° |
| 2026-04-29 19:49 | 56.53170 | -133.16013 | 9752 ft | 234 kts | 150° |
| 2026-04-29 19:49 | 56.51823 | -133.14392 | 9354 ft | 230 kts | 150° |
| 2026-04-29 19:49 | 56.50512 | -133.12821 | 8958 ft | 220 kts | 150° |
| 2026-04-29 19:49 | 56.49269 | -133.11332 | 8566 ft | 209 kts | 150° |
| 2026-04-29 19:50 | 56.48101 | -133.09828 | 8177 ft | 205 kts | 142° |
| 2026-04-29 19:50 | 56.47335 | -133.07692 | 7790 ft | 201 kts | 119° |
| 2026-04-29 19:50 | 56.46839 | -133.05396 | 7409 ft | 192 kts | 118° |
| 2026-04-29 19:50 | 56.46382 | -133.03175 | 7030 ft | 186 kts | 116° |
| 2026-04-29 19:51 | 56.45943 | -133.01003 | 6658 ft | 181 kts | 117° |
| 2026-04-29 19:51 | 56.45219 | -132.99344 | 6329 ft | 167 kts | 155° |
| 2026-04-29 19:51 | 56.44082 | -132.99072 | 6320 ft | 171 kts | 192° |
| 2026-04-29 19:51 | 56.43088 | -133.00290 | 6312 ft | 183 kts | 229° |
| 2026-04-29 19:52 | 56.42732 | -133.02551 | 6310 ft | 199 kts | 266° |
| 2026-04-29 19:52 | 56.43247 | -133.04938 | 6310 ft | 215 kts | 303° |
| 2026-04-29 19:52 | 56.44493 | -133.06482 | 6309 ft | 225 kts | 339° |
| 2026-04-29 19:52 | 56.46052 | -133.06686 | 6312 ft | 224 kts | 6° |
| 2026-04-29 19:53 | 56.47543 | -133.06019 | 6315 ft | 218 kts | 22° |
| 2026-04-29 19:53 | 56.48871 | -133.04797 | 6313 ft | 212 kts | 37° |
| 2026-04-29 19:53 | 56.50097 | -133.03223 | 6102 ft | 220 kts | 39° |
| 2026-04-29 19:53 | 56.51346 | -133.01578 | 5836 ft | 224 kts | 39° |
| 2026-04-29 19:54 | 56.53892 | -132.98212 | 5332 ft | 226 kts | 39° |
| 2026-04-29 19:54 | 56.55163 | -132.96537 | 5079 ft | 225 kts | 40° |
| 2026-04-29 19:54 | 56.56424 | -132.94872 | 4821 ft | 218 kts | 40° |
| 2026-04-29 19:55 | 56.57518 | -132.93421 | 4780 ft | 176 kts | 40° |
| 2026-04-29 19:55 | 56.58525 | -132.92187 | 4783 ft | 178 kts | 38° |
| 2026-04-29 19:55 | 56.59560 | -132.90908 | 4779 ft | 185 kts | 39° |
| 2026-04-29 19:55 | 56.60579 | -132.89603 | 4780 ft | 168 kts | 40° |
| 2026-04-29 19:56 | 56.61432 | -132.88480 | 4769 ft | 136 kts | 53° |
| 2026-04-29 19:56 | 56.61949 | -132.87214 | 4776 ft | 119 kts | 64° |
| 2026-04-29 19:56 | 56.62485 | -132.85923 | 4794 ft | 144 kts | 61° |
| 2026-04-29 19:56 | 56.63086 | -132.84260 | 4802 ft | 169 kts | 71° |
| 2026-04-29 19:57 | 56.63230 | -132.82238 | 4809 ft | 160 kts | 101° |
| 2026-04-29 19:57 | 56.63168 | -132.80954 | 4796 ft | 145 kts | 107° |
| 2026-04-29 19:57 | 56.62770 | -132.78869 | 4603 ft | 134 kts | 118° |
| 2026-04-29 19:57 | 56.62297 | -132.77321 | 4356 ft | 146 kts | 133° |
| 2026-04-29 19:58 | 56.61765 | -132.75797 | 4293 ft | 132 kts | 125° |
| 2026-04-29 19:58 | 56.61406 | -132.74429 | 4280 ft | 109 kts | 123° |
| 2026-04-29 19:58 | 56.61111 | -132.73130 | 4299 ft | 122 kts | 125° |
| 2026-04-29 19:58 | 56.60748 | -132.71800 | 4303 ft | 113 kts | 129° |
| 2026-04-29 19:59 | 56.60426 | -132.70575 | 4279 ft | 100 kts | 127° |
| 2026-04-29 19:59 | 56.60199 | -132.69513 | 4281 ft | 82 kts | 127° |
| 2026-04-29 19:59 | 56.60036 | -132.68605 | 4253 ft | 71 kts | 126° |
| 2026-04-29 19:59 | 56.59897 | -132.67671 | 4295 ft | 87 kts | 122° |
| 2026-04-29 20:00 | 56.59544 | -132.66591 | 4320 ft | 116 kts | 139° |
| 2026-04-29 20:00 | 56.59013 | -132.65286 | 4370 ft | 142 kts | 139° |
| 2026-04-29 20:00 | 56.58300 | -132.64001 | 4396 ft | 132 kts | 149° |
| 2026-04-29 20:00 | 56.57646 | -132.62965 | 4015 ft | 119 kts | 147° |
| 2026-04-29 20:01 | 56.57095 | -132.61848 | 3673 ft | 117 kts | 137° |
| 2026-04-29 20:01 | 56.56645 | -132.60609 | 3433 ft | 116 kts | 132° |
| 2026-04-29 20:01 | 56.56261 | -132.59326 | 3311 ft | 119 kts | 131° |
| 2026-04-29 20:01 | 56.55802 | -132.58020 | 3041 ft | 127 kts | 133° |
| 2026-04-29 20:02 | 56.55324 | -132.56643 | 2685 ft | 130 kts | 135° |
| 2026-04-29 20:02 | 56.54773 | -132.55343 | 2263 ft | 127 kts | 135° |
| 2026-04-29 20:02 | 56.54231 | -132.54132 | 1972 ft | 121 kts | 134° |
| 2026-04-29 20:02 | 56.54054 | -132.53734 | 1898 ft | 119 kts | 131° |
| 2026-04-29 20:03 | 56.53250 | -132.51571 | 1757 ft | 129 kts | 123° |
| 2026-04-29 20:03 | 56.52809 | -132.50109 | 1663 ft | 134 kts | 123° |
| 2026-04-29 20:03 | 56.52383 | -132.48714 | 1413 ft | 120 kts | 122° |
| 2026-04-29 20:03 | 56.51958 | -132.47436 | 1197 ft | 119 kts | 123° |
| 2026-04-29 20:04 | 56.51533 | -132.46134 | 1017 ft | 121 kts | 122° |
| 2026-04-29 20:04 | 56.51113 | -132.44839 | 854 ft | 118 kts | 123° |
| 2026-04-29 20:04 | 56.50840 | -132.44015 | 780 ft | 115 kts | 121° |
| 2026-04-29 20:04 | 56.50417 | -132.42765 | 616 ft | 117 kts | 125° |
| 2026-04-29 20:05 | 56.49994 | -132.41536 | 489 ft | 106 kts | 124° |
| 2026-04-29 20:05 | 56.49648 | -132.40523 | 336 ft | 88 kts | 121° |
| 2026-04-29 20:05 | 56.49301 | -132.39535 | 208 ft | 97 kts | 120° |
| 2026-04-29 20:05 | 56.48954 | -132.38512 | 98 ft | 94 kts | 122° |
| 2026-04-29 20:06 | 56.48647 | -132.37610 | 28 ft | 69 kts | 122° |
| 2026-04-29 20:06 | 56.48528 | -132.37316 | 30 ft | 9 kts | 187° |
| 2026-04-29 20:06 | 56.48512 | -132.37407 | 30 ft | 7 kts | 269° |
| 2026-04-29 20:06 | 56.48511 | -132.37490 | 30 ft | 11 kts | 270° |
| 2026-04-29 20:07 | 56.48508 | -132.37637 | 31 ft | 9 kts | 267° |
| 2026-04-29 20:07 | 56.48511 | -132.37720 | 31 ft | 9 kts | 291° |
| 2026-04-29 20:07 | 56.48567 | -132.37911 | 31 ft | 14 kts | 298° |
| 2026-04-29 20:07 | 56.48601 | -132.38015 | 31 ft | 6 kts | 301° |
| 2026-04-29 20:08 | 56.48623 | -132.38112 | 31 ft | 6 kts | 266° |
| 2026-04-29 20:08 | 56.48616 | -132.38139 | 31 ft | 2 kts | 216° |
| 2026-04-29 20:08 | 56.48604 | -132.38139 | 31 ft | 5 kts | 147° |
| 2026-04-29 20:08 | 56.48594 | -132.38115 | 31 ft | 0 kts | 120° |
| 2026-04-29 20:21 | 56.48593 | -132.38112 | 31 ft | 25 kts | 121° |
| 2026-04-29 20:21 | 56.48595 | -132.38120 | 31 ft | 53 kts | 121° |
| 2026-04-29 20:21 | 56.48592 | -132.38111 | 31 ft | 0 kts | 121° |